Time;durP1;ratioP1;P1;durP2;ratioP2;P2;SDS_P1;SDS_P2;PMS_P1;PMS_P2;Temp;Humidity;BMP_temperature;BMP_pressure;BME280_temperature;BME280_humidity;BME280_pressure;Samples;Min_cycle;Max_cycle;Signal;HPM_P1;HPM_P2
2021/11/02 00:02:10;;;;;;;9.10;6.30;;;;;;;-142.75;100.00;76475.81;5037099;28;20036;-71
2021/11/02 00:04:36;;;;;;;10.82;5.75;;;;;;;-142.75;100.00;76475.81;5021750;28;20029;-72
2021/11/02 00:07:02;;;;;;;12.57;6.22;;;;;;;-142.75;100.00;76483.69;5044578;28;20035;-71
2021/11/02 00:09:30;;;;;;;11.95;6.25;;;;;;;-142.75;100.00;76481.72;5034223;28;20021;-70
2021/11/02 00:11:56;;;;;;;12.10;6.27;;;;;;;-142.75;100.00;76471.88;5016147;28;20040;-70
2021/11/02 00:14:23;;;;;;;16.75;6.13;;;;;;;-142.75;100.00;76491.56;5033176;28;20033;-70
2021/11/02 00:16:55;;;;;;;11.70;6.57;;;;;;;-142.75;100.00;76483.69;5040399;28;20040;-73
2021/11/02 00:19:21;;;;;;;11.53;6.27;;;;;;;-142.75;100.00;76471.88;5036265;28;20033;-70
2021/11/02 00:21:48;;;;;;;13.00;6.70;;;;;;;-142.75;100.00;76475.81;5012158;28;20021;-71
2021/11/02 00:26:54;;;;;;;10.17;5.17;;;;;;;-142.75;100.00;76477.78;5048313;28;20041;-70
2021/11/02 00:29:19;;;;;;;12.82;6.00;;;;;;;-142.75;100.00;76479.75;5034262;28;20036;-71
2021/11/02 00:31:45;;;;;;;12.18;6.07;;;;;;;-142.75;100.00;76473.84;5029911;28;20025;-72
2021/11/02 00:34:10;;;;;;;13.75;5.45;;;;;;;-142.75;100.00;76462.03;5041475;28;20163;-70
2021/11/02 00:36:35;;;;;;;10.88;5.53;;;;;;;-142.75;100.00;76462.03;5026549;28;20494;-70
2021/11/02 00:39:01;;;;;;;12.32;5.95;;;;;;;-142.75;100.00;76464.00;5010936;28;20402;-71
2021/11/02 00:41:27;;;;;;;13.82;5.72;;;;;;;-142.75;100.00;76467.94;5027744;28;20033;-70
2021/11/02 00:43:54;;;;;;;10.10;5.93;;;;;;;-142.75;100.00;76477.78;5012725;28;20445;-70
2021/11/02 00:46:26;;;;;;;10.67;6.27;;;;;;;-142.75;100.00;76467.94;5019647;28;20029;-70
2021/11/02 00:48:51;;;;;;;10.47;5.37;;;;;;;-142.75;100.00;76487.63;5028709;28;20032;-70
2021/11/02 00:51:16;;;;;;;10.15;6.00;;;;;;;-142.75;100.00;76487.63;5042337;28;20024;-70
2021/11/02 00:53:42;;;;;;;10.88;5.43;;;;;;;-142.75;100.00;76467.94;5042362;28;20025;-70
2021/11/02 00:56:07;;;;;;;12.00;6.60;;;;;;;-142.75;100.00;76467.94;5010658;28;20033;-70
2021/11/02 00:58:33;;;;;;;8.23;5.60;;;;;;;-142.75;100.00;76460.06;5028446;28;20137;-71
2021/11/02 01:00:58;;;;;;;10.75;5.60;;;;;;;-142.75;100.00;76456.13;5015356;28;20021;-70
2021/11/02 01:03:23;;;;;;;11.82;5.60;;;;;;;-142.75;100.00;76462.03;5028554;28;20033;-70
2021/11/02 01:05:49;;;;;;;11.50;6.10;;;;;;;-142.75;100.00;76464.00;5028271;28;20017;-69
2021/11/02 01:08:14;;;;;;;11.52;6.15;;;;;;;-142.75;100.00;76485.66;5028490;28;20033;-70
2021/11/02 01:10:46;;;;;;;10.17;6.13;;;;;;;-142.75;100.00;76475.81;5027979;28;20045;-71
2021/11/02 01:13:12;;;;;;;10.83;6.23;;;;;;;-142.75;100.00;76475.81;5010414;28;20299;-68
2021/11/02 01:15:37;;;;;;;11.15;5.93;;;;;;;-142.75;100.00;76458.09;5028379;28;20056;-70
2021/11/02 01:18:02;;;;;;;9.32;6.05;;;;;;;-142.75;100.00;76452.19;5028309;28;20021;-70
2021/11/02 01:20:28;;;;;;;9.17;5.77;;;;;;;-142.75;100.00;76460.06;5027752;28;20032;-70
2021/11/02 01:22:54;;;;;;;10.95;6.07;;;;;;;-142.75;100.00;76464.00;5025015;28;20020;-70
2021/11/02 01:25:21;;;;;;;12.55;5.43;;;;;;;-142.75;100.00;76467.94;5048132;28;20112;-71
2021/11/02 01:27:46;;;;;;;13.00;5.70;;;;;;;-142.75;100.00;76465.97;5048104;28;20025;-70
2021/11/02 01:30:12;;;;;;;10.75;5.18;;;;;;;-142.75;100.00;76464.00;5046968;28;20021;-69
2021/11/02 01:32:39;;;;;;;7.60;5.30;;;;;;;-142.75;100.00;76464.00;5048422;28;20124;-70
2021/11/02 01:35:05;;;;;;;14.37;6.23;;;;;;;-142.75;100.00;76462.03;5047805;28;20025;-70
2021/11/02 01:37:31;;;;;;;10.23;6.00;;;;;;;-142.75;100.00;76467.94;5030385;28;20029;-70
2021/11/02 01:39:57;;;;;;;9.23;6.32;;;;;;;-142.75;100.00;76477.78;5029283;28;20028;-70
2021/11/02 01:42:25;;;;;;;12.57;5.68;;;;;;;-142.75;100.00;76491.56;5047976;28;20474;-70
2021/11/02 01:44:50;;;;;;;13.00;6.07;;;;;;;-142.75;100.00;76495.50;5047628;28;20013;-70
2021/11/02 01:47:19;;;;;;;9.65;5.45;;;;;;;-142.75;100.00;76511.25;5049739;28;20032;-70
2021/11/02 01:49:45;;;;;;;12.43;6.53;;;;;;;-142.75;100.00;76507.31;5050838;28;20028;-70
2021/11/02 01:52:11;;;;;;;11.05;6.22;;;;;;;-142.75;100.00;76503.38;5052217;28;20111;-70
2021/11/02 01:54:37;;;;;;;11.05;5.63;;;;;;;-142.75;100.00;76509.28;5051410;28;20017;-71
2021/11/02 01:57:03;;;;;;;9.67;6.50;;;;;;;-142.75;100.00;76507.31;5035521;28;20067;-69
2021/11/02 01:59:31;;;;;;;11.18;6.57;;;;;;;-142.75;100.00;76509.28;5013460;28;20376;-71
2021/11/02 02:02:23;;;;;;;14.90;6.60;;;;;;;-142.75;100.00;76497.47;5030799;28;20131;-70
2021/11/02 02:05:25;;;;;;;13.53;6.60;;;;;;;-142.75;100.00;76519.13;5013799;28;20021;-73
2021/11/02 02:08:15;;;;;;;16.23;6.67;;;;;;;-142.75;100.00;76517.16;5013681;28;20053;-69
2021/11/02 02:10:53;;;;;;;13.33;6.80;;;;;;;-142.75;100.00;76530.91;5030738;28;20037;-70
2021/11/02 02:13:42;;;;;;;12.70;6.43;;;;;;;-142.75;100.00;76511.25;5017310;28;20051;-70
2021/11/02 02:16:25;;;;;;;11.07;5.87;;;;;;;-142.75;100.00;76527.00;5050579;28;20051;-70
2021/11/02 02:19:11;;;;;;;12.37;6.47;;;;;;;-142.75;100.00;76534.84;5043112;28;20028;-68
2021/11/02 02:21:49;;;;;;;11.93;7.07;;;;;;;-142.75;100.00;76523.06;5012856;28;20091;-70
2021/11/02 02:24:23;;;;;;;12.87;6.90;;;;;;;-142.75;100.00;76527.00;5042606;28;20032;-70
2021/11/02 02:27:10;;;;;;;15.37;6.57;;;;;;;-142.75;100.00;76515.19;5051019;28;20492;-68
2021/11/02 02:29:40;;;;;;;14.87;6.80;;;;;;;-142.75;100.00;76511.25;5050332;28;20047;-71
2021/11/02 02:32:10;;;;;;;12.50;7.37;;;;;;;-142.75;100.00;76519.13;5032911;28;20457;-70
2021/11/02 02:34:36;;;;;;;12.27;6.87;;;;;;;-142.75;100.00;76515.19;5029804;28;20056;-71
2021/11/02 02:37:04;;;;;;;12.63;7.37;;;;;;;-142.75;100.00;76519.13;5041989;28;20112;-70
2021/11/02 02:39:33;;;;;;;12.20;7.03;;;;;;;-142.75;100.00;76523.06;5032797;28;20616;-70
2021/11/02 02:42:00;;;;;;;17.87;7.00;;;;;;;-142.75;100.00;76519.13;5031675;28;20036;-70
2021/11/02 02:44:26;;;;;;;11.13;6.57;;;;;;;-142.75;100.00;76523.06;5050220;28;20036;-70
2021/11/02 02:46:52;;;;;;;;;;;;;;;-142.75;100.00;76515.19;5050651;28;20031;-70
2021/11/02 02:49:18;;;;;;;15.77;7.30;;;;;;;-142.75;100.00;76517.16;5030510;28;19921;-69
2021/11/02 02:51:44;;;;;;;;;;;;;;;-142.75;100.00;76511.25;5030917;28;20032;-69
2021/11/02 02:54:12;;;;;;;12.37;7.73;;;;;;;-142.75;100.00;76513.22;5031192;28;20312;-71
2021/11/02 02:56:42;;;;;;;12.77;7.47;;;;;;;-142.75;100.00;76499.44;5050329;28;20453;-70
2021/11/02 02:59:09;;;;;;;14.83;8.17;;;;;;;-142.75;100.00;76507.31;5049529;28;20127;-71
2021/11/02 03:01:34;;;;;;;16.20;7.27;;;;;;;-142.75;100.00;76503.38;5029704;28;20036;-69
2021/11/02 03:04:05;;;;;;;15.48;7.50;;;;;;;-142.75;100.00;76495.50;5012312;28;20087;-70
2021/11/02 03:06:35;;;;;;;11.27;7.47;;;;;;;-142.75;100.00;76493.53;5030226;28;20117;-70
2021/11/02 03:09:01;;;;;;;14.83;7.93;;;;;;;-142.75;100.00;76507.31;5031010;28;20072;-70
2021/11/02 03:11:28;;;;;;;14.77;7.22;;;;;;;-142.75;100.00;76515.19;5040926;28;20024;-70
2021/11/02 03:13:57;;;;;;;13.77;7.70;;;;;;;-142.75;100.00;76503.38;5031850;28;20036;-69
2021/11/02 03:16:38;;;;;;;14.23;7.67;;;;;;;-142.75;100.00;76503.38;5031958;28;20029;-70
2021/11/02 03:44:05;;;;;;;44.37;39.67;;;;;;;-142.75;100.00;76507.31;5029492;28;20417;-70
2021/11/02 03:49:42;;;;;;;19.00;14.23;;;;;;;-142.75;100.00;76511.25;5033672;28;20047;-72
2021/11/02 03:55:07;;;;;;;17.43;9.47;;;;;;;-142.75;100.00;76515.19;5018072;28;20126;-69
2021/11/02 05:10:52;;;;;;;20.47;8.63;;;;;;;-142.75;100.00;76574.22;5046706;28;20071;-70
2021/11/02 05:49:15;;;;;;;22.50;9.50;;;;;;;-142.75;100.00;76542.72;5032177;28;20025;-66
2021/11/02 05:57:09;;;;;;;20.00;8.67;;;;;;;-142.75;100.00;76530.91;5051342;28;20039;-66
2021/11/02 05:59:44;;;;;;;19.57;9.63;;;;;;;-142.75;100.00;76550.59;5031538;28;20471;-67
2021/11/02 06:29:21;;;;;;;22.27;10.73;;;;;;;-142.75;100.00;76507.31;5031099;28;20036;-66
2021/11/02 06:31:59;;;;;;;21.83;10.40;;;;;;;-142.75;100.00;76503.38;5012799;28;20033;-67
2021/11/02 07:15:38;;;;;;;19.55;11.15;;;;;;;-142.75;100.00;76487.63;5029265;28;20052;-66
2021/11/02 07:18:11;;;;;;;20.33;11.10;;;;;;;-142.75;100.00;76503.38;5030005;28;20026;-67
2021/11/02 07:20:50;;;;;;;20.23;11.13;;;;;;;-142.75;100.00;76503.38;5029485;28;20100;-66
2021/11/02 07:23:24;;;;;;;24.43;11.93;;;;;;;-142.75;100.00;76493.53;5030374;28;20022;-66
2021/11/02 08:48:55;;;;;;;25.53;16.10;;;;;;;-142.75;100.00;76408.88;5027656;28;20034;-68
2021/11/02 08:51:22;;;;;;;28.50;15.97;;;;;;;-142.75;100.00;76393.13;5029983;28;20032;-68
2021/11/02 08:53:48;;;;;;;25.73;16.53;;;;;;;-142.75;100.00;76391.16;5030687;28;20387;-67
2021/11/02 08:56:15;;;;;;;24.50;16.30;;;;;;;-142.75;100.00;76399.03;5029384;28;20079;-68
2021/11/02 08:58:44;;;;;;;23.10;16.13;;;;;;;-142.75;100.00;76385.25;5051938;28;20081;-68
2021/11/02 09:01:10;;;;;;;28.97;16.97;;;;;;;-142.75;100.00;76373.44;5032885;28;20435;-66
2021/11/02 09:03:40;;;;;;;23.27;15.48;;;;;;;-142.75;100.00;76377.38;5051390;28;20021;-67
2021/11/02 09:06:07;;;;;;;22.47;15.73;;;;;;;-142.75;100.00;76410.84;5051444;28;20025;-68
2021/11/02 09:08:40;;;;;;;25.97;16.17;;;;;;;-142.75;100.00;76399.03;5051229;28;20112;-67
2021/11/02 09:11:06;;;;;;;26.00;16.07;;;;;;;-142.75;100.00;76406.91;5043968;28;20067;-66
2021/11/02 09:13:36;;;;;;;26.13;16.13;;;;;;;-142.75;100.00;76397.06;5042363;28;20064;-66
2021/11/02 09:16:02;;;;;;;28.45;16.88;;;;;;;-142.75;100.00;76397.06;5051375;28;20045;-65
2021/11/02 09:18:29;;;;;;;26.83;17.25;;;;;;;-142.75;100.00;76408.88;5047914;28;20845;-66
2021/11/02 09:20:56;;;;;;;26.90;16.88;;;;;;;-142.75;100.00;76414.78;5026772;28;20461;-66
2021/11/02 09:23:21;;;;;;;25.90;16.53;;;;;;;-142.75;100.00;76397.06;5037649;28;20021;-66
2021/11/02 09:25:48;;;;;;;25.35;16.50;;;;;;;-142.75;100.00;76404.94;5048089;28;20020;-66
2021/11/02 09:28:14;;;;;;;27.67;17.60;;;;;;;-142.75;100.00;76387.22;5029812;28;20031;-66
2021/11/02 09:30:40;;;;;;;24.85;16.75;;;;;;;-142.75;100.00;76397.06;5046641;28;20033;-66
2021/11/02 09:33:05;;;;;;;24.92;16.40;;;;;;;-142.75;100.00;76389.19;5047666;28;20035;-66
2021/11/02 09:35:32;;;;;;;29.15;18.00;;;;;;;-142.75;100.00;76393.13;5047115;28;20025;-66
2021/11/02 09:38:23;;;;;;;26.67;16.60;;;;;;;-142.75;100.00;76391.16;5046994;28;20048;-66
2021/11/02 09:41:18;;;;;;;26.93;16.43;;;;;;;-142.75;100.00;76385.25;5046278;28;20039;-66
2021/11/02 09:44:01;;;;;;;26.87;17.33;;;;;;;-142.75;100.00;76377.38;5046546;28;20021;-66
2021/11/02 09:46:36;;;;;;;27.40;16.33;;;;;;;-142.75;100.00;76373.44;5046946;28;20070;-65
2021/11/02 09:49:14;;;;;;;29.77;17.57;;;;;;;-142.75;100.00;76367.53;5046956;28;20083;-66
2021/11/02 09:51:54;;;;;;;23.95;16.52;;;;;;;-142.75;100.00;76369.50;5046559;28;20028;-66
2021/11/02 09:54:31;;;;;;;29.30;17.03;;;;;;;-142.75;100.00;76365.56;5038668;28;20030;-66
2021/11/02 09:57:35;;;;;;;27.10;17.45;;;;;;;-142.75;100.00;76353.78;5026865;28;20433;-67
2021/11/02 10:00:16;;;;;;;26.90;17.17;;;;;;;-142.75;100.00;76347.84;5044958;28;20413;-66
2021/11/02 10:03:28;;;;;;;26.00;17.33;;;;;;;-142.75;100.00;76363.59;5046873;28;20025;-68
2021/11/02 10:06:21;;;;;;;26.65;17.48;;;;;;;-142.75;100.00;76347.84;5010809;28;20033;-67
2021/11/02 10:09:01;;;;;;;26.70;16.80;;;;;;;-142.75;100.00;76345.91;5050079;28;20143;-67
2021/11/02 10:11:40;;;;;;;22.63;17.02;;;;;;;-142.75;100.00;76363.59;5049820;28;20063;-67
2021/11/02 10:14:23;;;;;;;21.75;16.83;;;;;;;-142.75;100.00;76359.66;5050170;28;20494;-67
2021/11/02 10:16:51;;;;;;;22.25;15.57;;;;;;;-142.75;100.00;76349.81;5049680;28;20021;-67
2021/11/02 10:19:48;;;;;;;21.83;15.90;;;;;;;-142.75;100.00;76357.69;5050145;28;20505;-67
2021/11/02 10:22:16;;;;;;;22.58;15.65;;;;;;;-142.75;100.00;76357.69;5050447;28;20017;-67
2021/11/02 10:24:57;;;;;;;20.60;16.20;;;;;;;-142.75;100.00;76369.50;5032508;28;20036;-67
2021/11/02 10:27:47;;;;;;;24.67;17.42;;;;;;;-142.75;100.00;76357.69;5031970;28;20021;-67
2021/11/02 10:30:25;;;;;;;20.33;16.00;;;;;;;-142.75;100.00;76347.84;5048949;28;20028;-68
2021/11/02 10:32:55;;;;;;;26.95;17.38;;;;;;;-142.75;100.00;76343.94;5047656;28;20413;-69
2021/11/02 10:35:26;;;;;;;26.35;18.52;;;;;;;-142.75;100.00;76318.34;5031683;28;20052;-67
2021/11/02 10:37:57;;;;;;;22.73;17.15;;;;;;;-142.75;100.00;76332.13;5031796;28;20067;-68
2021/11/02 10:40:28;;;;;;;23.70;16.95;;;;;;;-142.75;100.00;76349.81;5048797;28;20044;-67
2021/11/02 10:43:03;;;;;;;22.88;17.17;;;;;;;-142.75;100.00;76320.31;5031667;28;20043;-68
2021/11/02 10:45:30;;;;;;;21.90;16.27;;;;;;;-142.75;100.00;76345.91;5049514;28;20028;-67
2021/11/02 10:48:07;;;;;;;23.93;16.63;;;;;;;-142.75;100.00;76351.81;5049308;28;20505;-68
2021/11/02 10:50:37;;;;;;;;;;;;;;;-142.75;100.00;76330.16;5031469;28;20052;-67
2021/11/02 10:53:05;;;;;;;20.43;14.93;;;;;;;-142.75;100.00;76326.22;5049931;28;19912;-68
2021/11/02 10:55:54;;;;;;;24.23;16.30;;;;;;;-142.75;100.00;76302.59;5049310;28;20021;-66
2021/11/02 10:58:37;;;;;;;25.17;16.55;;;;;;;-142.75;100.00;76298.66;5049316;28;20029;-68
2021/11/02 11:01:05;;;;;;;19.98;14.52;;;;;;;-142.75;100.00;76292.75;5048342;28;20429;-67
2021/11/02 11:03:32;;;;;;;19.60;15.57;;;;;;;-142.75;100.00;76296.69;5049511;28;20048;-67
2021/11/02 11:06:00;;;;;;;19.33;13.82;;;;;;;-142.75;100.00;76300.63;5049161;28;20032;-67
2021/11/02 11:08:28;;;;;;;20.08;14.07;;;;;;;-142.75;100.00;76314.41;5049200;28;20402;-68
2021/11/02 11:10:57;;;;;;;17.58;13.35;;;;;;;-142.75;100.00;76294.72;5048507;28;20052;-67
2021/11/02 11:13:26;;;;;;;18.23;13.30;;;;;;;-142.75;100.00;76304.56;5048953;28;20082;-67
2021/11/02 11:15:57;;;;;;;21.80;13.07;;;;;;;-142.75;100.00;76326.22;5048576;28;20025;-68
2021/11/02 11:18:32;;;;;;;14.30;11.68;;;;;;;-142.75;100.00;76302.59;5043829;28;20445;-67
2021/11/02 11:20:59;;;;;;;18.50;12.52;;;;;;;-142.75;100.00;76310.47;5040611;28;20072;-67
2021/11/02 11:23:25;;;;;;;;;;;;;;;-142.75;100.00;76304.56;5050001;28;20544;-69
2021/11/02 11:25:56;;;;;;;15.73;11.85;;;;;;;-142.75;100.00;76310.47;5048777;28;20011;-67
2021/11/02 11:28:22;;;;;;;16.23;12.07;;;;;;;-142.75;100.00;76290.78;5048616;28;20411;-67
2021/11/02 11:30:51;;;;;;;17.20;13.02;;;;;;;-142.75;100.00;76302.59;5048151;28;20143;-66
2021/11/02 11:33:21;;;;;;;14.85;11.50;;;;;;;-142.75;100.00;76304.56;5029871;28;20048;-66
2021/11/02 11:35:49;;;;;;;15.30;11.50;;;;;;;-142.75;100.00;76286.84;5048975;28;20135;-65
2021/11/02 11:38:15;;;;;;;14.95;10.90;;;;;;;-142.75;100.00;76267.16;5048736;28;20025;-67
2021/11/02 11:40:43;;;;;;;12.80;10.05;;;;;;;-142.75;100.00;76255.34;5048126;28;20108;-65
2021/11/02 11:43:11;;;;;;;11.40;9.32;;;;;;;-142.75;100.00;76231.72;5048461;28;20033;-67
2021/11/02 11:45:40;;;;;;;12.05;9.50;;;;;;;-142.75;100.00;76208.09;5048255;28;20025;-66
2021/11/02 11:48:21;;;;;;;13.90;9.38;;;;;;;-142.75;100.00;76184.50;5048682;28;20021;-66
2021/11/02 11:50:48;;;;;;;12.25;9.25;;;;;;;-142.75;100.00;76174.66;5047843;28;20090;-67
2021/11/02 11:53:22;;;;;;;12.45;8.93;;;;;;;-142.75;100.00;76168.75;5031104;28;20024;-67
2021/11/02 11:56:00;;;;;;;10.48;7.80;;;;;;;-142.75;100.00;76164.81;5030438;28;20108;-66
2021/11/02 11:58:26;;;;;;;12.15;8.00;;;;;;;-142.75;100.00;76139.22;5048336;28;20112;-67
2021/11/02 12:01:05;;;;;;;8.93;6.22;;;;;;;-142.75;100.00;76133.31;5047475;28;20128;-68
2021/11/02 12:03:57;;;;;;;7.53;5.45;;;;;;;-142.75;100.00;76149.06;5048291;28;20117;-67
2021/11/02 12:06:27;;;;;;;7.28;5.30;;;;;;;-142.75;100.00;76129.38;5023921;28;20056;-67
2021/11/02 12:09:16;;;;;;;6.95;4.18;;;;;;;-142.75;100.00;76123.47;5007372;28;20090;-68
2021/11/02 12:11:42;;;;;;;5.75;4.22;;;;;;;-142.75;100.00;76149.06;5024095;28;20061;-69
2021/11/02 12:14:10;;;;;;;6.18;4.78;;;;;;;-142.75;100.00;76149.06;5025126;28;20068;-67
2021/11/02 12:16:42;;;;;;;7.45;4.63;;;;;;;-142.75;100.00;76145.13;5035283;28;20040;-67
2021/11/02 12:19:14;;;;;;;7.80;4.35;;;;;;;-142.75;100.00;76143.16;5044067;28;20146;-67
2021/11/02 12:21:43;;;;;;;8.70;4.47;;;;;;;-142.75;100.00;76154.97;5044044;22;20046;-67
2021/11/02 12:24:15;;;;;;;6.15;4.60;;;;;;;-142.75;100.00;76160.88;5006512;28;20041;-67
2021/11/02 12:26:46;;;;;;;7.97;4.22;;;;;;;-142.75;100.00;76168.75;5006359;28;20029;-67
2021/11/02 12:29:32;;;;;;;5.32;3.55;;;;;;;-142.75;100.00;76184.50;4987384;28;20028;-66
2021/11/02 12:32:03;;;;;;;5.93;3.60;;;;;;;-142.75;100.00;76188.44;4985219;28;20033;-66
2021/11/02 12:34:42;;;;;;;4.88;3.75;;;;;;;-142.75;100.00;76188.44;4988195;28;20022;-66
2021/11/02 12:37:11;;;;;;;6.00;4.25;;;;;;;-142.75;100.00;76172.69;5005583;28;20026;-67
2021/11/02 12:39:36;;;;;;;5.65;4.15;;;;;;;-142.75;100.00;76174.66;4987373;28;20040;-67
2021/11/02 12:42:03;;;;;;;9.98;5.50;;;;;;;-142.75;100.00;76200.25;4986794;28;20022;-69
2021/11/02 12:44:34;;;;;;;7.53;3.53;;;;;;;-142.75;100.00;76212.03;5005784;28;21409;-70
2021/11/02 12:47:03;;;;;;;4.18;2.53;;;;;;;-142.75;100.00;76214.00;5005526;28;20109;-70
2021/11/02 12:49:36;;;;;;;4.63;1.63;;;;;;;-142.75;100.00;76223.84;5004554;28;20041;-70
2021/11/02 12:52:06;;;;;;;4.53;1.90;;;;;;;-142.75;100.00;76219.91;5006543;28;20449;-69
2021/11/02 12:54:32;;;;;;;4.18;1.73;;;;;;;-142.75;100.00;76215.97;5025309;28;20083;-69
2021/11/02 12:57:03;;;;;;;2.42;1.55;;;;;;;-142.75;100.00;76206.13;5024989;28;20022;-70
2021/11/02 12:59:35;;;;;;;3.13;1.63;;;;;;;-142.75;100.00;76223.84;5024429;28;20393;-69
2021/11/02 13:02:20;;;;;;;3.55;1.45;;;;;;;-142.75;100.00;76219.91;5006181;28;20032;-70
2021/11/02 13:05:00;;;;;;;2.67;1.50;;;;;;;-142.75;100.00;76210.06;5024982;28;20478;-70
2021/11/02 13:07:27;;;;;;;5.15;1.60;;;;;;;-142.75;100.00;76202.19;5025024;28;20129;-70
2021/11/02 13:09:55;;;;;;;3.83;1.48;;;;;;;-142.75;100.00;76215.97;5023476;28;20564;-69
2021/11/02 13:12:26;;;;;;;2.10;1.17;;;;;;;-142.75;100.00;76204.16;5024526;28;20029;-69
2021/11/02 13:14:52;;;;;;;2.55;1.08;;;;;;;-142.75;100.00;76204.16;5025171;28;20022;-69
2021/11/02 13:17:19;;;;;;;;;;;;;;;-142.75;100.00;76210.06;5024695;28;20040;-70
2021/11/02 13:19:47;;;;;;;1.75;1.00;;;;;;;-142.75;100.00;76212.03;5023488;28;19964;-70
2021/11/02 13:22:24;;;;;;;5.60;1.25;;;;;;;-142.75;100.00;76192.38;5007162;28;20048;-69
2021/11/02 13:24:56;;;;;;;4.07;1.48;;;;;;;-142.75;100.00;76223.84;5025192;28;20110;-69
2021/11/02 13:27:42;;;;;;;2.00;1.00;;;;;;;-142.75;100.00;76212.03;5024905;28;20028;-70
2021/11/02 13:30:28;;;;;;;1.92;1.08;;;;;;;-142.75;100.00;76200.25;5023564;28;20079;-69
2021/11/02 13:33:12;;;;;;;2.67;1.10;;;;;;;-142.75;100.00;76182.53;5023306;28;20037;-70
2021/11/02 13:36:00;;;;;;;3.05;1.40;;;;;;;-142.75;100.00;76168.75;5007000;28;20029;-70
2021/11/02 13:38:41;;;;;;;4.18;1.38;;;;;;;-142.75;100.00;76141.19;5024728;28;20120;-70
2021/11/02 13:41:46;;;;;;;3.08;1.15;;;;;;;-142.75;100.00;76133.31;5023177;28;20033;-69
2021/11/02 13:44:12;;;;;;;2.38;1.00;;;;;;;-142.75;100.00;76125.44;5009350;28;20029;-66
2021/11/02 13:46:40;;;;;;;2.40;0.85;;;;;;;-142.75;100.00;76109.69;5010813;28;20013;-67
2021/11/02 13:49:07;;;;;;;2.58;1.10;;;;;;;-142.75;100.00;76115.59;5009807;28;20021;-67
2021/11/02 13:51:33;;;;;;;2.90;0.90;;;;;;;-142.75;100.00;76115.59;5009364;28;20063;-67
2021/11/02 13:54:00;;;;;;;1.67;0.68;;;;;;;-142.75;100.00;76117.56;5011033;28;20044;-66
2021/11/02 13:56:30;;;;;;;5.43;0.75;;;;;;;-142.75;100.00;76119.53;5027482;28;20032;-68
2021/11/02 13:58:58;;;;;;;1.88;0.40;;;;;;;-142.75;100.00;76129.38;5021782;28;20071;-66
2021/11/02 14:01:24;;;;;;;1.38;0.52;;;;;;;-142.75;100.00;76141.19;5027028;28;20044;-67
2021/11/02 14:04:03;;;;;;;2.15;0.68;;;;;;;-142.75;100.00;76147.09;5027662;28;20463;-66
2021/11/02 14:06:29;;;;;;;2.03;0.50;;;;;;;-142.75;100.00;76156.94;5009602;28;20068;-68
2021/11/02 14:08:55;;;;;;;2.42;0.50;;;;;;;-142.75;100.00;76166.78;5018353;28;20068;-67
2021/11/02 14:11:22;;;;;;;1.63;0.77;;;;;;;-142.75;100.00;76154.97;4989585;28;20030;-67
2021/11/02 14:13:49;;;;;;;1.73;0.73;;;;;;;-142.75;100.00;76164.81;5007998;28;20040;-68
2021/11/02 14:16:15;;;;;;;;;;;;;;;-142.75;100.00;76156.94;4990384;28;20073;-66
2021/11/02 14:18:40;;;;;;;2.53;0.65;;;;;;;-142.75;100.00;76172.69;5006596;28;19917;-67
2021/11/02 14:21:09;;;;;;;1.77;0.70;;;;;;;-142.75;100.00;76149.06;5026199;28;20028;-68
2021/11/02 14:23:38;;;;;;;1.60;0.73;;;;;;;-142.75;100.00;76162.84;5026666;28;20021;-67
2021/11/02 14:26:29;;;;;;;1.73;0.80;;;;;;;-142.75;100.00;76168.75;5026339;28;20717;-67
2021/11/02 14:28:56;;;;;;;2.72;0.70;;;;;;;-142.75;100.00;76184.50;5027138;28;20033;-68
2021/11/02 14:31:52;;;;;;;1.90;0.70;;;;;;;-142.75;100.00;76192.38;5026043;28;20028;-67
2021/11/02 14:34:26;;;;;;;5.18;0.73;;;;;;;-142.75;100.00;76192.38;5011163;28;20655;-67
2021/11/02 14:37:09;;;;;;;3.28;0.77;;;;;;;-142.75;100.00;76196.31;5027258;28;20018;-67
2021/11/02 14:39:56;;;;;;;6.88;0.88;;;;;;;-142.75;100.00;76188.44;5011340;28;20424;-68
2021/11/02 14:42:56;;;;;;;;;;;;;;;-142.75;100.00;76198.28;5024497;28;20395;-67
2021/11/02 14:45:43;;;;;;;3.38;0.60;;;;;;;-142.75;100.00;76200.25;4987248;28;19920;-69
2021/11/02 14:48:41;;;;;;;2.97;0.60;;;;;;;-142.75;100.00;76180.56;5009037;28;20107;-69
2021/11/02 14:51:06;;;;;;;;;;;;;;;-142.75;100.00;76186.47;5012555;28;20017;-70
2021/11/02 14:53:36;;;;;;;2.33;0.50;;;;;;;-142.75;100.00;76192.38;5019958;28;20346;-69
2021/11/02 14:56:14;;;;;;;3.72;0.80;;;;;;;-142.75;100.00;76176.63;5014844;28;20104;-71
2021/11/02 14:58:40;;;;;;;3.22;0.77;;;;;;;-142.75;100.00;76176.63;4997594;28;20026;-71
2021/11/02 15:01:17;;;;;;;1.35;0.57;;;;;;;-142.75;100.00;76180.56;5008245;28;20570;-71
2021/11/02 15:03:49;;;;;;;3.88;0.82;;;;;;;-142.75;100.00;76174.66;5009801;28;20032;-71
2021/11/02 15:06:16;;;;;;;4.80;0.70;;;;;;;-142.75;100.00;76164.81;5009544;28;20076;-71
2021/11/02 15:08:44;;;;;;;4.72;0.77;;;;;;;-142.75;100.00;76182.53;5010032;28;20029;-71
2021/11/02 15:11:11;;;;;;;1.75;0.52;;;;;;;-142.75;100.00;76180.56;5008377;28;20117;-71
2021/11/02 15:13:45;;;;;;;1.15;0.50;;;;;;;-142.75;100.00;76176.63;4991489;28;20060;-71
2021/11/02 15:16:11;;;;;;;2.45;0.73;;;;;;;-142.75;100.00;76186.47;5008958;28;20041;-71
2021/11/02 15:18:39;;;;;;;2.15;0.77;;;;;;;-142.75;100.00;76194.34;5009865;28;20033;-72
2021/11/02 15:21:05;;;;;;;0.88;0.40;;;;;;;-142.75;100.00;76196.31;5008614;28;20036;-72
2021/11/02 15:23:43;;;;;;;2.40;0.70;;;;;;;-142.75;100.00;76192.38;4992226;28;20022;-71
2021/11/02 15:26:09;;;;;;;4.43;0.90;;;;;;;-142.75;100.00;76212.03;5009208;28;20488;-71
2021/11/02 15:28:50;;;;;;;2.50;0.80;;;;;;;-142.75;100.00;76196.31;5009582;28;20060;-71
2021/11/02 15:31:25;;;;;;;2.10;0.90;;;;;;;-142.75;100.00;76196.31;4990621;28;20025;-72
2021/11/02 15:33:50;;;;;;;2.42;1.05;;;;;;;-142.75;100.00;76208.09;4990454;28;20026;-71
2021/11/02 15:36:19;;;;;;;4.23;1.07;;;;;;;-142.75;100.00;76194.34;5009137;28;20562;-70
2021/11/02 15:39:02;;;;;;;2.50;0.93;;;;;;;-142.75;100.00;76204.16;5009240;28;20284;-71
2021/11/02 15:41:28;;;;;;;3.00;0.80;;;;;;;-142.75;100.00;76214.00;5008268;28;20048;-71
2021/11/02 15:44:03;;;;;;;2.40;0.95;;;;;;;-142.75;100.00;76219.91;5009131;28;20112;-71
2021/11/02 15:46:31;;;;;;;3.58;0.77;;;;;;;-142.75;100.00;76217.94;5008569;28;20018;-72
2021/11/02 15:48:58;;;;;;;3.15;0.70;;;;;;;-142.75;100.00;76212.03;4991184;28;20041;-72
2021/11/02 15:51:26;;;;;;;2.58;0.70;;;;;;;-142.75;100.00;76212.03;5008094;28;20055;-72
2021/11/02 15:53:52;;;;;;;1.70;0.77;;;;;;;-142.75;100.00;76219.91;4991941;28;20036;-71
2021/11/02 15:56:24;;;;;;;;;;;;;;;-142.75;100.00;76227.78;5009095;28;20391;-72
2021/11/02 15:59:04;;;;;;;3.60;0.73;;;;;;;-142.75;100.00;76212.03;5008545;28;19964;-71
2021/11/02 16:01:43;;;;;;;1.30;0.50;;;;;;;-142.75;100.00;76206.13;4990033;28;20450;-71
2021/11/02 16:04:13;;;;;;;3.08;0.73;;;;;;;-142.75;100.00;76227.78;5008548;28;20393;-71
2021/11/02 16:07:00;;;;;;;2.58;0.70;;;;;;;-142.75;100.00;76227.78;5012289;28;20491;-71
2021/11/02 16:09:43;;;;;;;2.88;0.80;;;;;;;-142.75;100.00;76227.78;5028072;28;20040;-71
2021/11/02 16:12:15;;;;;;;4.90;0.95;;;;;;;-142.75;100.00;76223.84;5026955;28;20515;-72
2021/11/02 16:14:51;;;;;;;2.55;0.90;;;;;;;-142.75;100.00;76227.78;5007986;28;20029;-71
2021/11/02 16:17:18;;;;;;;4.40;1.20;;;;;;;-142.75;100.00;76215.97;5028042;28;20029;-72
2021/11/02 16:19:43;;;;;;;3.35;1.33;;;;;;;-142.75;100.00;76221.88;5027497;28;20033;-71
2021/11/02 16:22:09;;;;;;;5.43;1.55;;;;;;;-142.75;100.00;76221.88;5009745;28;20021;-71
2021/11/02 16:24:36;;;;;;;6.07;1.30;;;;;;;-142.75;100.00;76231.72;5028650;28;20025;-72
2021/11/02 16:27:21;;;;;;;2.70;1.67;;;;;;;-142.75;100.00;76235.66;5009887;28;20072;-71